sensor_id;sensor_type;location;lat;lon;timestamp;pressure;altitude;pressure_sealevel;temperature
66372;BMP180;53168;51.146;17.120;2023-09-30T00:14:11;100406.80;;;19.20
66372;BMP180;53168;51.146;17.120;2023-09-30T00:17:42;100410.20;;;19.20
66372;BMP180;53168;51.146;17.120;2023-09-30T00:20:39;100412.60;;;19.20
66372;BMP180;53168;51.146;17.120;2023-09-30T00:36:11;100414.40;;;19.10
66372;BMP180;53168;51.146;17.120;2023-09-30T00:39:47;100408.60;;;19.10
66372;BMP180;53168;51.146;17.120;2023-09-30T00:46:37;100408.80;;;19.10
66372;BMP180;53168;51.146;17.120;2023-09-30T00:50:11;100411.00;;;19.10
66372;BMP180;53168;51.146;17.120;2023-09-30T00:53:28;100410.00;;;19.10
66372;BMP180;53168;51.146;17.120;2023-09-30T00:56:02;100414.00;;;19.10
66372;BMP180;53168;51.146;17.120;2023-09-30T00:58:33;100412.20;;;19.10
66372;BMP180;53168;51.146;17.120;2023-09-30T01:01:05;100414.40;;;19.14
66372;BMP180;53168;51.146;17.120;2023-09-30T01:03:44;100412.40;;;19.10
66372;BMP180;53168;51.146;17.120;2023-09-30T01:06:22;100417.00;;;19.10
66372;BMP180;53168;51.146;17.120;2023-09-30T01:08:57;100413.60;;;19.10
66372;BMP180;53168;51.146;17.120;2023-09-30T01:11:44;100415.00;;;19.00
66372;BMP180;53168;51.146;17.120;2023-09-30T01:15:21;100418.00;;;19.00
66372;BMP180;53168;51.146;17.120;2023-09-30T01:18:08;100417.80;;;19.00
66372;BMP180;53168;51.146;17.120;2023-09-30T01:24:19;100428.40;;;19.10
66372;BMP180;53168;51.146;17.120;2023-09-30T01:26:49;100427.20;;;19.10
66372;BMP180;53168;51.146;17.120;2023-09-30T01:29:35;100431.00;;;19.10
66372;BMP180;53168;51.146;17.120;2023-09-30T01:32:09;100431.00;;;19.10
66372;BMP180;53168;51.146;17.120;2023-09-30T01:34:39;100426.80;;;19.10
66372;BMP180;53168;51.146;17.120;2023-09-30T01:37:09;100423.80;;;19.10
66372;BMP180;53168;51.146;17.120;2023-09-30T01:39:42;100428.40;;;19.10
66372;BMP180;53168;51.146;17.120;2023-09-30T01:42:42;100427.20;;;19.10
66372;BMP180;53168;51.146;17.120;2023-09-30T01:45:13;100432.40;;;19.20
66372;BMP180;53168;51.146;17.120;2023-09-30T01:47:45;100430.00;;;19.20
66372;BMP180;53168;51.146;17.120;2023-09-30T01:50:34;100431.80;;;19.30
66372;BMP180;53168;51.146;17.120;2023-09-30T01:53:07;100437.20;;;19.40
66372;BMP180;53168;51.146;17.120;2023-09-30T01:59:48;100436.20;;;19.60
66372;BMP180;53168;51.146;17.120;2023-09-30T02:02:22;100432.00;;;19.78
66372;BMP180;53168;51.146;17.120;2023-09-30T02:05:14;100434.40;;;19.90
66372;BMP180;53168;51.146;17.120;2023-09-30T02:07:47;100439.00;;;20.00
66372;BMP180;53168;51.146;17.120;2023-09-30T02:10:43;100438.80;;;20.04
66372;BMP180;53168;51.146;17.120;2023-09-30T02:13:45;100440.60;;;20.10
66372;BMP180;53168;51.146;17.120;2023-09-30T02:19:42;100439.40;;;20.10
66372;BMP180;53168;51.146;17.120;2023-09-30T02:22:34;100440.00;;;20.10
66372;BMP180;53168;51.146;17.120;2023-09-30T02:27:58;100437.80;;;20.00
66372;BMP180;53168;51.146;17.120;2023-09-30T02:30:56;100435.60;;;20.04
66372;BMP180;53168;51.146;17.120;2023-09-30T02:33:29;100437.40;;;20.10
66372;BMP180;53168;51.146;17.120;2023-09-30T02:36:08;100444.40;;;20.10
66372;BMP180;53168;51.146;17.120;2023-09-30T02:38:41;100440.60;;;20.20
66372;BMP180;53168;51.146;17.120;2023-09-30T02:41:30;100444.00;;;20.20
66372;BMP180;53168;51.146;17.120;2023-09-30T02:44:43;100447.00;;;20.20
66372;BMP180;53168;51.146;17.120;2023-09-30T02:47:19;100455.60;;;20.16
66372;BMP180;53168;51.146;17.120;2023-09-30T03:10:58;100468.60;;;20.08
66372;BMP180;53168;51.146;17.120;2023-09-30T03:13:32;100470.40;;;20.10
66372;BMP180;53168;51.146;17.120;2023-09-30T03:16:13;100470.60;;;20.00
66372;BMP180;53168;51.146;17.120;2023-09-30T03:18:49;100468.80;;;19.80
66372;BMP180;53168;51.146;17.120;2023-09-30T03:21:23;100469.60;;;19.70
66372;BMP180;53168;51.146;17.120;2023-09-30T03:23:57;100466.80;;;19.60
66372;BMP180;53168;51.146;17.120;2023-09-30T03:26:33;100462.40;;;19.54
66372;BMP180;53168;51.146;17.120;2023-09-30T03:29:07;100458.80;;;19.50
66372;BMP180;53168;51.146;17.120;2023-09-30T03:31:41;100460.00;;;19.50
66372;BMP180;53168;51.146;17.120;2023-09-30T03:34:18;100467.20;;;19.40
66372;BMP180;53168;51.146;17.120;2023-09-30T03:36:58;100472.80;;;19.30
66372;BMP180;53168;51.146;17.120;2023-09-30T03:40:10;100476.20;;;19.30
66372;BMP180;53168;51.146;17.120;2023-09-30T03:43:05;100481.40;;;19.30
66372;BMP180;53168;51.146;17.120;2023-09-30T03:50:27;100489.80;;;19.30
66372;BMP180;53168;51.146;17.120;2023-09-30T03:53:20;100492.40;;;19.30
66372;BMP180;53168;51.146;17.120;2023-09-30T03:56:18;100492.80;;;19.30
66372;BMP180;53168;51.146;17.120;2023-09-30T03:58:55;100499.20;;;19.30
66372;BMP180;53168;51.146;17.120;2023-09-30T04:01:51;100497.80;;;19.30
66372;BMP180;53168;51.146;17.120;2023-09-30T04:09:45;100511.60;;;19.40
66372;BMP180;53168;51.146;17.120;2023-09-30T04:17:11;100513.80;;;19.26
66372;BMP180;53168;51.146;17.120;2023-09-30T04:27:48;100534.20;;;19.20
66372;BMP180;53168;51.146;17.120;2023-09-30T04:31:04;100534.40;;;19.12
66372;BMP180;53168;51.146;17.120;2023-09-30T04:33:58;100531.80;;;19.10
66372;BMP180;53168;51.146;17.120;2023-09-30T04:37:00;100538.60;;;19.10
66372;BMP180;53168;51.146;17.120;2023-09-30T04:39:42;100543.20;;;19.00
66372;BMP180;53168;51.146;17.120;2023-09-30T04:42:26;100545.60;;;19.00
66372;BMP180;53168;51.146;17.120;2023-09-30T04:45:00;100551.20;;;18.90
66372;BMP180;53168;51.146;17.120;2023-09-30T04:47:35;100551.00;;;18.80
66372;BMP180;53168;51.146;17.120;2023-09-30T04:50:12;100546.60;;;18.72
66372;BMP180;53168;51.146;17.120;2023-09-30T04:52:49;100556.00;;;18.70
66372;BMP180;53168;51.146;17.120;2023-09-30T04:55:23;100563.00;;;18.60
66372;BMP180;53168;51.146;17.120;2023-09-30T04:57:58;100570.40;;;18.60
66372;BMP180;53168;51.146;17.120;2023-09-30T05:00:48;100578.00;;;18.60
66372;BMP180;53168;51.146;17.120;2023-09-30T05:21:35;100595.40;;;18.78
66372;BMP180;53168;51.146;17.120;2023-09-30T05:24:09;100604.40;;;18.80
66372;BMP180;53168;51.146;17.120;2023-09-30T05:26:56;100601.60;;;18.80
66372;BMP180;53168;51.146;17.120;2023-09-30T05:29:39;100599.20;;;18.80
66372;BMP180;53168;51.146;17.120;2023-09-30T05:32:27;100601.80;;;18.80
66372;BMP180;53168;51.146;17.120;2023-09-30T05:34:57;100604.00;;;18.80
66372;BMP180;53168;51.146;17.120;2023-09-30T05:37:28;100608.80;;;18.80
66372;BMP180;53168;51.146;17.120;2023-09-30T05:40:38;100608.80;;;18.84
66372;BMP180;53168;51.146;17.120;2023-09-30T05:43:30;100616.60;;;18.90
66372;BMP180;53168;51.146;17.120;2023-09-30T05:46:01;100626.80;;;19.00
66372;BMP180;53168;51.146;17.120;2023-09-30T05:48:31;100627.00;;;19.00
66372;BMP180;53168;51.146;17.120;2023-09-30T05:51:01;100631.60;;;19.08
66372;BMP180;53168;51.146;17.120;2023-09-30T05:53:48;100636.00;;;19.10
66372;BMP180;53168;51.146;17.120;2023-09-30T05:56:19;100640.60;;;19.20
66372;BMP180;53168;51.146;17.120;2023-09-30T05:58:50;100637.40;;;19.20
66372;BMP180;53168;51.146;17.120;2023-09-30T06:01:20;100640.60;;;19.20
66372;BMP180;53168;51.146;17.120;2023-09-30T06:04:33;100640.20;;;19.20
66372;BMP180;53168;51.146;17.120;2023-09-30T06:07:12;100647.00;;;19.20
66372;BMP180;53168;51.146;17.120;2023-09-30T06:09:44;100645.80;;;19.20
66372;BMP180;53168;51.146;17.120;2023-09-30T06:12:31;100647.20;;;19.20
66372;BMP180;53168;51.146;17.120;2023-09-30T06:15:05;100654.40;;;19.20
66372;BMP180;53168;51.146;17.120;2023-09-30T06:17:35;100658.40;;;19.20
66372;BMP180;53168;51.146;17.120;2023-09-30T06:20:09;100667.60;;;19.14
66372;BMP180;53168;51.146;17.120;2023-09-30T06:22:46;100671.60;;;19.10
66372;BMP180;53168;51.146;17.120;2023-09-30T06:25:19;100677.80;;;19.00
66372;BMP180;53168;51.146;17.120;2023-09-30T06:27:52;100681.00;;;18.90
66372;BMP180;53168;51.146;17.120;2023-09-30T06:30:22;100680.80;;;18.80
66372;BMP180;53168;51.146;17.120;2023-09-30T06:32:59;100691.20;;;18.70
66372;BMP180;53168;51.146;17.120;2023-09-30T06:35:29;100703.80;;;18.54
66372;BMP180;53168;51.146;17.120;2023-09-30T06:37:59;100712.40;;;18.40
66372;BMP180;53168;51.146;17.120;2023-09-30T06:40:30;100717.80;;;18.34
66372;BMP180;53168;51.146;17.120;2023-09-30T06:42:59;100721.40;;;18.30
66372;BMP180;53168;51.146;17.120;2023-09-30T06:45:30;100725.40;;;18.20
66372;BMP180;53168;51.146;17.120;2023-09-30T06:48:02;100725.80;;;18.10
66372;BMP180;53168;51.146;17.120;2023-09-30T06:50:32;100728.20;;;18.10
66372;BMP180;53168;51.146;17.120;2023-09-30T06:53:02;100737.40;;;18.06
66372;BMP180;53168;51.146;17.120;2023-09-30T06:55:34;100747.80;;;18.00
66372;BMP180;53168;51.146;17.120;2023-09-30T06:58:06;100750.40;;;18.00
66372;BMP180;53168;51.146;17.120;2023-09-30T07:00:38;100757.40;;;18.00
66372;BMP180;53168;51.146;17.120;2023-09-30T07:03:08;100757.40;;;17.90
66372;BMP180;53168;51.146;17.120;2023-09-30T07:05:40;100765.20;;;17.90
66372;BMP180;53168;51.146;17.120;2023-09-30T07:08:10;100764.00;;;17.80
66372;BMP180;53168;51.146;17.120;2023-09-30T07:10:40;100773.20;;;17.80
66372;BMP180;53168;51.146;17.120;2023-09-30T07:13:10;100768.60;;;17.70
66372;BMP180;53168;51.146;17.120;2023-09-30T07:15:41;100771.40;;;17.70
66372;BMP180;53168;51.146;17.120;2023-09-30T07:18:11;100770.60;;;17.70
66372;BMP180;53168;51.146;17.120;2023-09-30T07:20:50;100777.60;;;17.70
66372;BMP180;53168;51.146;17.120;2023-09-30T07:23:24;100782.20;;;17.70
66372;BMP180;53168;51.146;17.120;2023-09-30T07:25:55;100790.40;;;17.70
66372;BMP180;53168;51.146;17.120;2023-09-30T07:28:33;100792.80;;;17.80
66372;BMP180;53168;51.146;17.120;2023-09-30T07:31:06;100804.20;;;17.84
66372;BMP180;53168;51.146;17.120;2023-09-30T07:33:51;100803.60;;;17.90
66372;BMP180;53168;51.146;17.120;2023-09-30T07:36:27;100813.40;;;17.90
66372;BMP180;53168;51.146;17.120;2023-09-30T07:39:09;100826.20;;;17.80
66372;BMP180;53168;51.146;17.120;2023-09-30T07:41:45;100824.60;;;17.80
66372;BMP180;53168;51.146;17.120;2023-09-30T07:44:20;100835.80;;;17.80
66372;BMP180;53168;51.146;17.120;2023-09-30T07:46:51;100831.20;;;17.72
66372;BMP180;53168;51.146;17.120;2023-09-30T07:49:23;100833.80;;;17.70
66372;BMP180;53168;51.146;17.120;2023-09-30T07:51:53;100829.60;;;17.70
66372;BMP180;53168;51.146;17.120;2023-09-30T07:54:25;100838.20;;;17.70
66372;BMP180;53168;51.146;17.120;2023-09-30T07:57:01;100835.80;;;17.70
66372;BMP180;53168;51.146;17.120;2023-09-30T07:59:31;100837.20;;;17.70
66372;BMP180;53168;51.146;17.120;2023-09-30T08:02:03;100836.20;;;17.76
66372;BMP180;53168;51.146;17.120;2023-09-30T08:04:34;100848.80;;;17.80
66372;BMP180;53168;51.146;17.120;2023-09-30T08:07:20;100840.40;;;17.80
66372;BMP180;53168;51.146;17.120;2023-09-30T08:09:55;100836.80;;;17.80
66372;BMP180;53168;51.146;17.120;2023-09-30T08:12:41;100842.00;;;17.80
66372;BMP180;53168;51.146;17.120;2023-09-30T08:15:28;100845.60;;;17.82
66372;BMP180;53168;51.146;17.120;2023-09-30T08:18:01;100847.00;;;17.90
66372;BMP180;53168;51.146;17.120;2023-09-30T08:20:40;100846.80;;;18.00
66372;BMP180;53168;51.146;17.120;2023-09-30T08:27:23;100864.00;;;18.00
66372;BMP180;53168;51.146;17.120;2023-09-30T08:30:35;100861.00;;;18.18
66372;BMP180;53168;51.146;17.120;2023-09-30T08:33:38;100867.40;;;18.34
66372;BMP180;53168;51.146;17.120;2023-09-30T08:36:10;100864.60;;;18.50
66372;BMP180;53168;51.146;17.120;2023-09-30T08:38:41;100862.00;;;18.48
66372;BMP180;53168;51.146;17.120;2023-09-30T08:41:12;100867.40;;;18.40
66372;BMP180;53168;51.146;17.120;2023-09-30T08:44:00;100870.60;;;18.70
66372;BMP180;53168;51.146;17.120;2023-09-30T08:46:34;100883.80;;;18.90
66372;BMP180;53168;51.146;17.120;2023-09-30T08:49:06;100886.20;;;19.00
66372;BMP180;53168;51.146;17.120;2023-09-30T08:51:37;100886.60;;;19.10
66372;BMP180;53168;51.146;17.120;2023-09-30T08:54:12;100885.20;;;19.20
66372;BMP180;53168;51.146;17.120;2023-09-30T08:56:48;100889.40;;;19.24
66372;BMP180;53168;51.146;17.120;2023-09-30T08:59:19;100893.20;;;19.34
66372;BMP180;53168;51.146;17.120;2023-09-30T09:01:49;100900.40;;;19.40
66372;BMP180;53168;51.146;17.120;2023-09-30T09:04:19;100911.60;;;19.12
66372;BMP180;53168;51.146;17.120;2023-09-30T09:06:49;100911.60;;;18.80
66372;BMP180;53168;51.146;17.120;2023-09-30T09:09:20;100913.40;;;18.70
66372;BMP180;53168;51.146;17.120;2023-09-30T09:11:51;100912.00;;;18.70
66372;BMP180;53168;51.146;17.120;2023-09-30T09:14:38;100919.80;;;18.94
66372;BMP180;53168;51.146;17.120;2023-09-30T09:17:11;100914.40;;;19.40
66372;BMP180;53168;51.146;17.120;2023-09-30T09:19:41;100916.40;;;19.60
66372;BMP180;53168;51.146;17.120;2023-09-30T09:22:11;100922.60;;;19.80
66372;BMP180;53168;51.146;17.120;2023-09-30T09:24:41;100927.80;;;19.70
66372;BMP180;53168;51.146;17.120;2023-09-30T09:27:13;100920.00;;;19.92
66372;BMP180;53168;51.146;17.120;2023-09-30T09:29:45;100932.60;;;20.00
66372;BMP180;53168;51.146;17.120;2023-09-30T09:32:17;100932.40;;;20.20
66372;BMP180;53168;51.146;17.120;2023-09-30T09:35:01;100944.40;;;20.10
66372;BMP180;53168;51.146;17.120;2023-09-30T09:37:40;100932.40;;;19.60
66372;BMP180;53168;51.146;17.120;2023-09-30T09:40:12;100926.60;;;19.50
66372;BMP180;53168;51.146;17.120;2023-09-30T09:42:44;100926.20;;;19.60
66372;BMP180;53168;51.146;17.120;2023-09-30T09:45:15;100918.80;;;19.60
66372;BMP180;53168;51.146;17.120;2023-09-30T09:47:45;100922.60;;;19.70
66372;BMP180;53168;51.146;17.120;2023-09-30T09:50:18;100924.20;;;19.80
66372;BMP180;53168;51.146;17.120;2023-09-30T09:52:51;100925.60;;;20.00
66372;BMP180;53168;51.146;17.120;2023-09-30T09:55:24;100927.60;;;20.10
66372;BMP180;53168;51.146;17.120;2023-09-30T09:57:55;100934.40;;;20.20
66372;BMP180;53168;51.146;17.120;2023-09-30T10:00:27;100932.20;;;20.20
66372;BMP180;53168;51.146;17.120;2023-09-30T10:02:59;100933.40;;;20.10
66372;BMP180;53168;51.146;17.120;2023-09-30T10:05:30;100934.00;;;19.82
66372;BMP180;53168;51.146;17.120;2023-09-30T10:08:08;100927.60;;;19.68
66372;BMP180;53168;51.146;17.120;2023-09-30T10:10:38;100931.60;;;19.60
66372;BMP180;53168;51.146;17.120;2023-09-30T10:13:56;100934.00;;;19.60
66372;BMP180;53168;51.146;17.120;2023-09-30T10:16:51;100932.60;;;19.78
66372;BMP180;53168;51.146;17.120;2023-09-30T10:19:23;100920.40;;;19.92
66372;BMP180;53168;51.146;17.120;2023-09-30T10:22:29;100914.60;;;20.20
66372;BMP180;53168;51.146;17.120;2023-09-30T10:25:01;100916.80;;;20.42
66372;BMP180;53168;51.146;17.120;2023-09-30T10:27:50;100910.60;;;20.60
66372;BMP180;53168;51.146;17.120;2023-09-30T10:30:19;100916.60;;;20.90
66372;BMP180;53168;51.146;17.120;2023-09-30T10:33:13;100916.80;;;21.10
66372;BMP180;53168;51.146;17.120;2023-09-30T10:35:50;100915.60;;;21.30
66372;BMP180;53168;51.146;17.120;2023-09-30T10:38:41;100919.20;;;21.58
66372;BMP180;53168;51.146;17.120;2023-09-30T10:41:49;100928.00;;;21.68
66372;BMP180;53168;51.146;17.120;2023-09-30T10:44:35;100933.00;;;21.60
66372;BMP180;53168;51.146;17.120;2023-09-30T10:47:35;100933.80;;;21.68
66372;BMP180;53168;51.146;17.120;2023-09-30T10:50:54;100935.80;;;21.70
66372;BMP180;53168;51.146;17.120;2023-09-30T10:53:25;100933.20;;;21.80
66372;BMP180;53168;51.146;17.120;2023-09-30T10:55:58;100944.20;;;21.88
66372;BMP180;53168;51.146;17.120;2023-09-30T10:58:44;100937.20;;;21.58
66372;BMP180;53168;51.146;17.120;2023-09-30T11:01:17;100933.80;;;21.40
66372;BMP180;53168;51.146;17.120;2023-09-30T11:03:49;100939.80;;;21.40
66372;BMP180;53168;51.146;17.120;2023-09-30T11:06:23;100932.00;;;21.40
66372;BMP180;53168;51.146;17.120;2023-09-30T12:06:00;100932.20;;;21.66
66372;BMP180;53168;51.146;17.120;2023-09-30T12:08:31;100933.00;;;22.62
66372;BMP180;53168;51.146;17.120;2023-09-30T12:11:15;100945.40;;;23.14
66372;BMP180;53168;51.146;17.120;2023-09-30T12:13:52;100939.80;;;23.70
66372;BMP180;53168;51.146;17.120;2023-09-30T12:16:37;100945.00;;;24.30
66372;BMP180;53168;51.146;17.120;2023-09-30T12:19:34;100948.20;;;24.80
66372;BMP180;53168;51.146;17.120;2023-09-30T12:22:21;100938.80;;;24.90
66372;BMP180;53168;51.146;17.120;2023-09-30T12:24:56;100938.60;;;25.20
66372;BMP180;53168;51.146;17.120;2023-09-30T12:27:35;100947.80;;;25.30
66372;BMP180;53168;51.146;17.120;2023-09-30T12:30:16;100939.80;;;25.30
66372;BMP180;53168;51.146;17.120;2023-09-30T12:32:53;100942.80;;;25.20
66372;BMP180;53168;51.146;17.120;2023-09-30T12:35:36;100944.60;;;25.20
66372;BMP180;53168;51.146;17.120;2023-09-30T12:38:19;100954.80;;;25.10
66372;BMP180;53168;51.146;17.120;2023-09-30T12:40:50;100944.80;;;24.90
66372;BMP180;53168;51.146;17.120;2023-09-30T12:43:20;100940.20;;;25.26
66372;BMP180;53168;51.146;17.120;2023-09-30T12:45:49;100938.40;;;25.90
66372;BMP180;53168;51.146;17.120;2023-09-30T12:48:21;100941.20;;;26.58
66372;BMP180;53168;51.146;17.120;2023-09-30T12:50:50;100954.40;;;26.80
66372;BMP180;53168;51.146;17.120;2023-09-30T12:53:20;100951.60;;;26.70
66372;BMP180;53168;51.146;17.120;2023-09-30T12:55:49;100956.20;;;26.50
66372;BMP180;53168;51.146;17.120;2023-09-30T12:58:19;100949.60;;;26.10
66372;BMP180;53168;51.146;17.120;2023-09-30T13:00:49;100953.00;;;25.54
66372;BMP180;53168;51.146;17.120;2023-09-30T13:03:18;100951.60;;;25.10
66372;BMP180;53168;51.146;17.120;2023-09-30T13:05:51;100950.00;;;25.34
66372;BMP180;53168;51.146;17.120;2023-09-30T13:08:20;100950.20;;;25.70
66372;BMP180;53168;51.146;17.120;2023-09-30T13:10:50;100943.00;;;25.96
66372;BMP180;53168;51.146;17.120;2023-09-30T13:13:21;100951.00;;;26.26
66372;BMP180;53168;51.146;17.120;2023-09-30T13:15:51;100950.60;;;26.48
66372;BMP180;53168;51.146;17.120;2023-09-30T13:18:22;100951.00;;;25.56
66372;BMP180;53168;51.146;17.120;2023-09-30T13:20:54;100970.20;;;24.86
66372;BMP180;53168;51.146;17.120;2023-09-30T13:23:24;100950.40;;;24.68
66372;BMP180;53168;51.146;17.120;2023-09-30T13:25:55;100965.20;;;24.80
66372;BMP180;53168;51.146;17.120;2023-09-30T13:28:26;100973.60;;;23.94
66372;BMP180;53168;51.146;17.120;2023-09-30T13:30:57;100969.00;;;23.56
66372;BMP180;53168;51.146;17.120;2023-09-30T13:33:29;100967.60;;;23.30
66372;BMP180;53168;51.146;17.120;2023-09-30T13:35:59;100947.60;;;23.44
66372;BMP180;53168;51.146;17.120;2023-09-30T13:38:29;100945.00;;;23.98
66372;BMP180;53168;51.146;17.120;2023-09-30T13:40:59;100968.00;;;24.70
66372;BMP180;53168;51.146;17.120;2023-09-30T13:43:29;100978.20;;;24.12
66372;BMP180;53168;51.146;17.120;2023-09-30T13:46:03;100962.60;;;23.50
66372;BMP180;53168;51.146;17.120;2023-09-30T13:48:35;100982.20;;;22.74
66372;BMP180;53168;51.146;17.120;2023-09-30T13:51:07;100979.80;;;21.96
66372;BMP180;53168;51.146;17.120;2023-09-30T13:53:37;100980.60;;;21.32
66372;BMP180;53168;51.146;17.120;2023-09-30T13:56:55;100979.80;;;20.84
66372;BMP180;53168;51.146;17.120;2023-09-30T13:59:25;100983.20;;;20.40
66372;BMP180;53168;51.146;17.120;2023-09-30T14:01:54;100984.40;;;20.20
66372;BMP180;53168;51.146;17.120;2023-09-30T14:04:24;100975.80;;;20.40
66372;BMP180;53168;51.146;17.120;2023-09-30T14:06:54;100952.20;;;20.58
66372;BMP180;53168;51.146;17.120;2023-09-30T14:09:29;100956.40;;;21.72
66372;BMP180;53168;51.146;17.120;2023-09-30T14:12:05;100961.80;;;22.42
66372;BMP180;53168;51.146;17.120;2023-09-30T14:14:38;100982.00;;;22.62
66372;BMP180;53168;51.146;17.120;2023-09-30T14:17:17;100975.80;;;22.14
66372;BMP180;53168;51.146;17.120;2023-09-30T14:19:57;100949.20;;;22.66
66372;BMP180;53168;51.146;17.120;2023-09-30T14:22:29;100947.60;;;23.66
66372;BMP180;53168;51.146;17.120;2023-09-30T14:25:33;100961.80;;;24.36
66372;BMP180;53168;51.146;17.120;2023-09-30T14:31:08;100950.80;;;24.72
66372;BMP180;53168;51.146;17.120;2023-09-30T14:33:52;100945.80;;;25.30
66372;BMP180;53168;51.146;17.120;2023-09-30T14:36:41;100948.40;;;25.70
66372;BMP180;53168;51.146;17.120;2023-09-30T14:39:44;100947.80;;;25.94
66372;BMP180;53168;51.146;17.120;2023-09-30T14:42:29;100951.60;;;25.84
66372;BMP180;53168;51.146;17.120;2023-09-30T14:52:00;100948.40;;;25.30
66372;BMP180;53168;51.146;17.120;2023-09-30T14:56:13;100953.60;;;25.20
66372;BMP180;53168;51.146;17.120;2023-09-30T14:58:50;100952.00;;;24.90
66372;BMP180;53168;51.146;17.120;2023-09-30T15:01:22;100960.80;;;24.70
66372;BMP180;53168;51.146;17.120;2023-09-30T15:03:54;100958.00;;;24.70
66372;BMP180;53168;51.146;17.120;2023-09-30T15:06:24;100965.80;;;24.74
66372;BMP180;53168;51.146;17.120;2023-09-30T15:08:54;100968.20;;;24.30
66372;BMP180;53168;51.146;17.120;2023-09-30T15:11:25;100969.20;;;23.96
66372;BMP180;53168;51.146;17.120;2023-09-30T15:13:55;100959.60;;;24.00
66372;BMP180;53168;51.146;17.120;2023-09-30T15:16:47;100965.00;;;23.98
66372;BMP180;53168;51.146;17.120;2023-09-30T15:19:35;100952.60;;;23.90
66372;BMP180;53168;51.146;17.120;2023-09-30T15:22:07;100968.40;;;23.80
66372;BMP180;53168;51.146;17.120;2023-09-30T15:24:44;100971.00;;;23.38
66372;BMP180;53168;51.146;17.120;2023-09-30T15:27:33;100972.60;;;23.10
66372;BMP180;53168;51.146;17.120;2023-09-30T15:33:13;100975.20;;;22.80
66372;BMP180;53168;51.146;17.120;2023-09-30T15:35:45;100970.00;;;22.58
66372;BMP180;53168;51.146;17.120;2023-09-30T15:38:55;100978.20;;;22.10
66372;BMP180;53168;51.146;17.120;2023-09-30T15:41:43;100987.80;;;21.80
66372;BMP180;53168;51.146;17.120;2023-09-30T15:44:15;101002.20;;;21.24
66372;BMP180;53168;51.146;17.120;2023-09-30T15:46:45;101011.60;;;20.70
66372;BMP180;53168;51.146;17.120;2023-09-30T15:49:16;100999.40;;;20.20
66372;BMP180;53168;51.146;17.120;2023-09-30T15:51:57;101007.00;;;19.90
66372;BMP180;53168;51.146;17.120;2023-09-30T15:54:27;100993.20;;;19.50
66372;BMP180;53168;51.146;17.120;2023-09-30T15:56:57;100995.40;;;19.50
66372;BMP180;53168;51.146;17.120;2023-09-30T15:59:32;101000.80;;;19.50
66372;BMP180;53168;51.146;17.120;2023-09-30T16:02:02;101003.80;;;19.40
66372;BMP180;53168;51.146;17.120;2023-09-30T16:04:34;101010.60;;;19.30
66372;BMP180;53168;51.146;17.120;2023-09-30T16:07:23;101005.00;;;19.00
66372;BMP180;53168;51.146;17.120;2023-09-30T16:09:58;101006.80;;;18.80
66372;BMP180;53168;51.146;17.120;2023-09-30T16:12:28;101013.20;;;18.52
66372;BMP180;53168;51.146;17.120;2023-09-30T16:15:01;101016.60;;;18.30
66372;BMP180;53168;51.146;17.120;2023-09-30T16:17:37;101023.20;;;18.00
66372;BMP180;53168;51.146;17.120;2023-09-30T16:23:24;101032.60;;;17.40
66372;BMP180;53168;51.146;17.120;2023-09-30T16:25:53;101039.40;;;17.20
66372;BMP180;53168;51.146;17.120;2023-09-30T16:28:30;101043.00;;;17.00
66372;BMP180;53168;51.146;17.120;2023-09-30T16:31:02;101046.00;;;16.80
66372;BMP180;53168;51.146;17.120;2023-09-30T16:33:36;101045.60;;;16.60
66372;BMP180;53168;51.146;17.120;2023-09-30T16:36:07;101045.60;;;16.40
66372;BMP180;53168;51.146;17.120;2023-09-30T16:39:04;101045.60;;;16.20
66372;BMP180;53168;51.146;17.120;2023-09-30T16:41:39;101043.20;;;16.10
66372;BMP180;53168;51.146;17.120;2023-09-30T16:44:31;101035.80;;;15.94
66372;BMP180;53168;51.146;17.120;2023-09-30T16:47:01;101043.20;;;15.80
66372;BMP180;53168;51.146;17.120;2023-09-30T16:49:33;101043.20;;;15.70
66372;BMP180;53168;51.146;17.120;2023-09-30T16:52:04;101037.60;;;15.60
66372;BMP180;53168;51.146;17.120;2023-09-30T16:54:34;101038.00;;;15.50
66372;BMP180;53168;51.146;17.120;2023-09-30T16:57:05;101034.80;;;15.40
66372;BMP180;53168;51.146;17.120;2023-09-30T16:59:36;101030.60;;;15.30
66372;BMP180;53168;51.146;17.120;2023-09-30T17:02:08;101028.00;;;15.20
66372;BMP180;53168;51.146;17.120;2023-09-30T17:04:42;101032.20;;;15.04
66372;BMP180;53168;51.146;17.120;2023-09-30T17:07:12;101030.60;;;14.90
66372;BMP180;53168;51.146;17.120;2023-09-30T17:09:42;101034.40;;;14.80
66372;BMP180;53168;51.146;17.120;2023-09-30T17:12:12;101039.20;;;14.70
66372;BMP180;53168;51.146;17.120;2023-09-30T17:14:42;101042.00;;;14.60
66372;BMP180;53168;51.146;17.120;2023-09-30T17:17:14;101041.80;;;14.60
66372;BMP180;53168;51.146;17.120;2023-09-30T17:22:23;101050.00;;;14.44
66372;BMP180;53168;51.146;17.120;2023-09-30T17:24:53;101050.60;;;14.40
66372;BMP180;53168;51.146;17.120;2023-09-30T17:27:23;101048.80;;;14.38
66372;BMP180;53168;51.146;17.120;2023-09-30T17:29:53;101047.60;;;14.30
66372;BMP180;53168;51.146;17.120;2023-09-30T17:32:24;101045.80;;;14.24
66372;BMP180;53168;51.146;17.120;2023-09-30T17:35:18;101053.20;;;14.12
66372;BMP180;53168;51.146;17.120;2023-09-30T17:37:48;101055.40;;;14.10
66372;BMP180;53168;51.146;17.120;2023-09-30T17:40:19;101054.80;;;14.10
66372;BMP180;53168;51.146;17.120;2023-09-30T17:42:49;101057.20;;;14.10
66372;BMP180;53168;51.146;17.120;2023-09-30T17:45:20;101062.00;;;14.10
66372;BMP180;53168;51.146;17.120;2023-09-30T17:47:49;101058.60;;;14.10
66372;BMP180;53168;51.146;17.120;2023-09-30T17:50:23;101068.60;;;14.20
66372;BMP180;53168;51.146;17.120;2023-09-30T17:52:54;101063.40;;;14.20